Time;durP1;ratioP1;P1;durP2;ratioP2;P2;SDS_P1;SDS_P2;PMS_P1;PMS_P2;Temp;Humidity;BMP_temperature;BMP_pressure;BME280_temperature;BME280_humidity;BME280_pressure;Samples;Min_cycle;Max_cycle;Signal;HPM_P1;HPM_P2
2021/11/09 00:00:37;;;;;;;1999.90;999.90;;;;;;;;;;4958879;28;20192;-79
2021/11/09 00:03:08;;;;;;;1999.90;999.90;;;8.70;99.90;;;;;;4957512;29;20287;-79
2021/11/09 00:05:34;;;;;;;1999.90;999.90;;;;;;;;;;4957358;28;20236;-79
2021/11/09 00:08:03;;;;;;;1999.90;999.90;;;8.70;99.90;;;;;;4956865;28;20212;-79
2021/11/09 00:10:29;;;;;;;1999.90;999.90;;;;;;;;;;4957613;28;20220;-79
2021/11/09 00:13:00;;;;;;;1999.90;999.90;;;8.70;99.90;;;;;;4957561;29;20208;-80
2021/11/09 00:15:26;;;;;;;1999.90;999.90;;;9.10;99.90;;;;;;4957121;29;20237;-79
2021/11/09 00:17:54;;;;;;;1999.90;999.90;;;8.80;99.90;;;;;;4956699;29;20295;-80
2021/11/09 00:20:21;;;;;;;1999.90;999.90;;;9.30;99.90;;;;;;4956717;28;20588;-78
2021/11/09 00:22:46;;;;;;;1999.90;999.90;;;9.10;99.90;;;;;;4958247;28;20727;-79
2021/11/09 00:25:12;;;;;;;1999.90;999.90;;;8.80;99.90;;;;;;4956443;28;20224;-79
2021/11/09 00:27:38;;;;;;;1999.90;999.90;;;8.80;99.90;;;;;;4954824;28;20217;-80
2021/11/09 00:30:05;;;;;;;1999.90;999.90;;;8.70;99.90;;;;;;4955328;28;20577;-80
2021/11/09 00:32:31;;;;;;;1999.90;999.90;;;8.80;99.90;;;;;;4956110;28;20270;-79
2021/11/09 00:34:56;;;;;;;1999.90;999.90;;;8.90;99.90;;;;;;4955515;28;20219;-79
2021/11/09 00:37:22;;;;;;;1999.90;999.90;;;8.80;99.90;;;;;;4955157;28;20200;-80
2021/11/09 00:39:48;;;;;;;1999.90;999.90;;;9.30;99.90;;;;;;4957560;29;20189;-78
2021/11/09 00:42:14;;;;;;;1999.90;999.90;;;9.20;99.90;;;;;;4960295;28;20288;-78
2021/11/09 00:44:40;;;;;;;1999.90;999.90;;;8.70;99.90;;;;;;4958324;28;20234;-80
2021/11/09 00:47:05;;;;;;;1999.90;999.90;;;8.90;99.90;;;;;;4957225;28;20312;-79
2021/11/09 00:49:31;;;;;;;1999.90;999.90;;;8.80;99.90;;;;;;4956844;28;20195;-79
2021/11/09 00:51:57;;;;;;;1999.90;999.90;;;9.00;99.90;;;;;;4956652;28;20185;-79
2021/11/09 00:54:22;;;;;;;1999.90;999.90;;;9.10;99.90;;;;;;4957035;28;20660;-79
2021/11/09 00:56:48;;;;;;;1999.90;999.90;;;8.90;99.90;;;;;;4956278;28;20305;-79
2021/11/09 00:59:14;;;;;;;1999.90;999.90;;;8.90;99.90;;;;;;4955660;29;20184;-79
2021/11/09 01:01:39;;;;;;;1999.90;999.90;;;9.10;99.90;;;;;;4955976;28;20564;-80
2021/11/09 01:04:05;;;;;;;1999.90;999.90;;;8.90;99.90;;;;;;4955764;28;20568;-78
2021/11/09 01:06:31;;;;;;;1999.90;999.90;;;9.40;99.90;;;;;;4956426;29;20193;-80
2021/11/09 01:08:56;;;;;;;1999.90;999.90;;;9.20;99.90;;;;;;4958992;28;20176;-80
2021/11/09 01:11:22;;;;;;;1999.90;999.90;;;8.80;99.90;;;;;;4959934;29;20677;-78
2021/11/09 01:13:48;;;;;;;1999.90;999.90;;;8.80;99.90;;;;;;4960318;28;20180;-79
2021/11/09 01:16:14;;;;;;;1999.90;999.90;;;8.70;99.90;;;;;;4959604;28;20563;-79
2021/11/09 01:18:47;;;;;;;1999.90;999.90;;;8.60;99.90;;;;;;4959492;28;20182;-78
2021/11/09 01:21:14;;;;;;;1999.90;999.90;;;8.70;99.90;;;;;;4959767;28;20210;-80
2021/11/09 01:23:42;;;;;;;1999.90;999.90;;;8.60;99.90;;;;;;4965120;28;20184;-79
2021/11/09 01:26:09;;;;;;;1999.90;999.90;;;8.30;99.90;;;;;;4978992;29;20201;-78
2021/11/09 01:28:35;;;;;;;1999.90;999.90;;;8.30;99.90;;;;;;4978804;28;20191;-78
2021/11/09 01:31:00;;;;;;;1999.90;999.90;;;8.20;99.90;;;;;;4978733;28;20204;-78
2021/11/09 01:33:26;;;;;;;1999.90;999.90;;;8.20;99.90;;;;;;4978928;29;20169;-79
2021/11/09 01:35:52;;;;;;;1999.90;999.90;;;8.00;99.90;;;;;;4978873;29;20226;-77
2021/11/09 01:38:18;;;;;;;1999.90;999.90;;;7.90;99.90;;;;;;4978398;28;20190;-78
2021/11/09 01:40:44;;;;;;;1999.90;999.90;;;8.00;99.90;;;;;;4978627;28;20221;-79
2021/11/09 01:43:09;;;;;;;1999.90;999.90;;;7.90;99.90;;;;;;4978415;28;20212;-80
2021/11/09 01:45:35;;;;;;;1999.90;999.90;;;7.90;99.90;;;;;;4966307;28;20196;-79
2021/11/09 01:48:01;;;;;;;1999.90;999.90;;;7.60;99.90;;;;;;5020980;23;20247;-79
2021/11/09 01:50:31;;;;;;;1999.90;999.90;;;7.80;99.90;;;;;;4984827;28;20266;-79
2021/11/09 01:52:57;;;;;;;1999.90;999.90;;;7.60;99.90;;;;;;5000400;28;20262;-78
2021/11/09 01:55:24;;;;;;;1999.90;999.90;;;7.50;99.90;;;;;;4999596;28;20221;-79
2021/11/09 01:57:49;;;;;;;1999.90;999.90;;;7.40;99.90;;;;;;4980231;28;20585;-79
2021/11/09 02:00:21;;;;;;;1999.90;999.90;;;7.40;99.90;;;;;;4995507;28;20188;-79
2021/11/09 02:02:46;;;;;;;1999.90;999.90;;;7.70;99.90;;;;;;4995742;28;20244;-80
2021/11/09 02:05:13;;;;;;;1999.90;999.90;;;7.30;99.90;;;;;;4996191;28;20405;-79
2021/11/09 02:07:52;;;;;;;1999.90;999.90;;;7.20;99.90;;;;;;4978708;28;20223;-80
2021/11/09 02:10:19;;;;;;;1999.90;999.90;;;7.20;99.90;;;;;;4996010;28;20173;-78
2021/11/09 02:12:44;;;;;;;1999.90;999.90;;;7.10;99.90;;;;;;4978440;28;20185;-80
2021/11/09 02:15:10;;;;;;;1999.90;999.90;;;7.10;99.90;;;;;;4979027;28;20184;-80
2021/11/09 02:17:37;;;;;;;1999.90;999.90;;;6.90;99.90;;;;;;4978417;28;20682;-79
2021/11/09 02:20:04;;;;;;;1999.90;999.90;;;6.90;99.90;;;;;;4978223;28;20674;-79
2021/11/09 02:22:30;;;;;;;1999.90;999.90;;;7.00;99.90;;;;;;4994921;28;20188;-81
2021/11/09 02:24:56;;;;;;;1999.90;999.90;;;6.90;99.90;;;;;;4979335;28;20183;-79
2021/11/09 02:27:22;;;;;;;1999.90;999.90;;;6.80;99.90;;;;;;4977798;28;20715;-79
2021/11/09 02:29:47;;;;;;;1999.90;999.90;;;6.80;99.90;;;;;;4978726;28;20562;-79
2021/11/09 02:32:13;;;;;;;1999.90;999.90;;;6.80;99.90;;;;;;4978837;28;20177;-78
2021/11/09 02:34:38;;;;;;;1999.90;999.90;;;6.60;99.90;;;;;;4979212;28;20196;-79
2021/11/09 02:37:04;;;;;;;1999.90;999.90;;;6.70;99.90;;;;;;4978893;28;20212;-79
2021/11/09 02:39:29;;;;;;;1999.90;999.90;;;6.70;99.90;;;;;;4994662;28;20183;-80
2021/11/09 02:41:55;;;;;;;1999.90;999.90;;;6.70;99.90;;;;;;4978510;28;20185;-80
2021/11/09 02:44:24;;;;;;;1999.90;999.90;;;6.60;99.90;;;;;;4978669;28;20182;-80
2021/11/09 02:46:53;;;;;;;1999.90;999.90;;;6.50;99.90;;;;;;4978161;28;20217;-79
2021/11/09 02:49:31;;;;;;;1999.90;999.90;;;6.90;99.90;;;;;;4994492;28;20169;-81
2021/11/09 02:52:04;;;;;;;1999.90;999.90;;;7.10;99.90;;;;;;4978296;28;20671;-81
2021/11/09 02:54:36;;;;;;;1999.90;999.90;;;6.60;99.90;;;;;;4993592;28;20165;-79
2021/11/09 02:57:05;;;;;;;1999.90;999.90;;;6.40;99.90;;;;;;4978171;28;20209;-81
2021/11/09 03:02:06;;;;;;;1999.90;999.90;;;6.30;99.90;;;;;;4994797;28;20175;-81
2021/11/09 03:04:57;;;;;;;1999.90;999.90;;;6.40;99.90;;;;;;4993754;28;20170;-79
2021/11/09 03:10:19;;;;;;;1999.90;999.90;;;6.30;99.90;;;;;;4992223;28;20719;-81
2021/11/09 03:12:45;;;;;;;1999.90;999.90;;;6.40;99.90;;;;;;4978274;28;20185;-80
2021/11/09 03:15:12;;;;;;;1999.90;999.90;;;6.20;99.90;;;;;;4994178;28;20213;-81
2021/11/09 03:17:45;;;;;;;1999.90;999.90;;;6.20;99.90;;;;;;4978184;28;20202;-81
2021/11/09 03:20:17;;;;;;;1999.90;999.90;;;6.10;99.90;;;;;;4978683;28;20177;-78
2021/11/09 03:47:07;;;;;;;1999.90;999.90;;;5.90;99.90;;;;;;4993183;28;20218;-80
2021/11/09 03:49:34;;;;;;;1999.90;999.90;;;5.90;99.90;;;;;;4976444;28;20208;-80
2021/11/09 03:52:02;;;;;;;1999.90;999.90;;;5.70;99.90;;;;;;4995042;28;20169;-80
2021/11/09 03:54:28;;;;;;;1999.90;999.90;;;6.00;99.90;;;;;;4995598;28;20184;-78
2021/11/09 03:57:04;;;;;;;1999.90;999.90;;;6.20;99.90;;;;;;4993957;28;20207;-79
2021/11/09 04:00:09;;;;;;;1999.90;999.90;;;5.90;99.90;;;;;;4976824;28;20189;-79
2021/11/09 04:07:34;;;;;;;1999.90;999.90;;;5.70;99.90;;;;;;4992568;28;20206;-79
2021/11/09 04:26:17;;;;;;;1999.90;999.90;;;5.60;99.90;;;;;;4990426;28;20272;-80
2021/11/09 04:29:00;;;;;;;1999.90;999.90;;;5.60;99.90;;;;;;4976105;28;20562;-80
2021/11/09 04:31:49;;;;;;;1999.90;999.90;;;5.60;99.90;;;;;;4976028;28;20186;-81
2021/11/09 04:40:33;;;;;;;1999.90;999.90;;;5.60;99.90;;;;;;4989932;28;20257;-78
2021/11/09 04:48:16;;;;;;;1999.90;999.90;;;5.40;99.90;;;;;;4996674;28;20461;-78
2021/11/09 05:11:39;;;;;;;1999.90;999.90;;;5.20;99.90;;;;;;4994243;28;20181;-80
2021/11/09 05:14:09;;;;;;;1999.90;999.90;;;5.30;99.90;;;;;;4976870;28;20647;-81
2021/11/09 05:16:35;;;;;;;1999.90;999.90;;;5.30;99.90;;;;;;4976172;28;20204;-80
2021/11/09 05:19:00;;;;;;;1999.90;999.90;;;5.20;99.90;;;;;;4975595;28;20284;-82
2021/11/09 05:21:26;;;;;;;1999.90;999.90;;;5.00;99.90;;;;;;4972627;28;20612;-79
2021/11/09 05:23:52;;;;;;;1999.90;999.90;;;5.10;99.90;;;;;;4990728;28;20206;-83
2021/11/09 05:26:17;;;;;;;1999.90;999.90;;;5.20;99.90;;;;;;4978448;28;20219;-79
2021/11/09 05:28:45;;;;;;;1999.90;999.90;;;5.10;99.90;;;;;;4980668;28;20263;-82
2021/11/09 05:31:11;;;;;;;1999.90;999.90;;;5.00;99.90;;;;;;4980466;28;20645;-81
2021/11/09 05:33:37;;;;;;;1999.90;999.90;;;5.00;99.90;;;;;;4982024;28;20236;-81
2021/11/09 05:36:04;;;;;;;1999.90;999.90;;;5.20;99.90;;;;;;4977790;28;20182;-81
2021/11/09 05:38:44;;;;;;;1999.90;999.90;;;5.20;99.90;;;;;;4978596;28;20204;-81
2021/11/09 05:41:11;;;;;;;1999.90;999.90;;;5.20;99.90;;;;;;4977100;28;20188;-79
2021/11/09 05:43:36;;;;;;;1999.90;999.90;;;5.20;99.90;;;;;;4993357;28;20177;-81
2021/11/09 05:46:02;;;;;;;1999.90;999.90;;;5.20;99.90;;;;;;4976810;28;20193;-82
2021/11/09 05:48:28;;;;;;;1999.90;999.90;;;5.40;99.90;;;;;;4953885;28;20207;-81
2021/11/09 05:50:54;;;;;;;1999.90;999.90;;;5.20;99.90;;;;;;4940765;29;20199;-82
2021/11/09 05:53:19;;;;;;;1999.90;999.90;;;5.10;99.90;;;;;;4941680;29;20194;-82
2021/11/09 05:55:45;;;;;;;1999.90;999.90;;;5.10;99.90;;;;;;4963778;28;20649;-83
2021/11/09 05:58:11;;;;;;;1999.90;999.90;;;5.20;99.90;;;;;;4977190;28;20668;-82
2021/11/09 06:00:36;;;;;;;1999.90;999.90;;;5.20;99.90;;;;;;4954570;28;20182;-81
2021/11/09 06:03:02;;;;;;;1999.90;999.90;;;5.10;99.90;;;;;;5003967;28;20186;-80
2021/11/09 06:05:28;;;;;;;1999.90;999.90;;;5.20;99.90;;;;;;5001968;28;20177;-82
2021/11/09 06:07:54;;;;;;;1999.90;999.90;;;5.10;99.90;;;;;;4985161;28;20240;-80
2021/11/09 06:10:20;;;;;;;1999.90;999.90;;;5.10;99.90;;;;;;4985801;28;20631;-81
2021/11/09 06:12:45;;;;;;;1999.90;999.90;;;5.10;99.90;;;;;;5003891;28;20181;-82
2021/11/09 06:15:11;;;;;;;1999.90;999.90;;;5.00;99.90;;;;;;4983789;28;20244;-81
2021/11/09 06:17:36;;;;;;;1999.90;999.90;;;5.10;99.90;;;;;;4980646;28;20288;-80
2021/11/09 06:20:02;;;;;;;1999.90;999.90;;;5.00;99.90;;;;;;4976106;28;20184;-78
2021/11/09 06:22:28;;;;;;;1999.90;999.90;;;5.10;99.90;;;;;;4991014;28;20196;-75
2021/11/09 06:24:53;;;;;;;1999.90;999.90;;;5.10;99.90;;;;;;4974326;28;20188;-75
2021/11/09 06:27:19;;;;;;;1999.90;999.90;;;5.00;99.90;;;;;;4975308;28;20719;-77
2021/11/09 06:29:45;;;;;;;1999.90;999.90;;;5.00;99.90;;;;;;4978195;28;20547;-78
2021/11/09 06:32:10;;;;;;;1999.90;999.90;;;5.00;99.90;;;;;;4976551;28;20262;-80
2021/11/09 06:34:36;;;;;;;1999.90;999.90;;;5.10;99.90;;;;;;4993905;28;20176;-81
2021/11/09 06:37:02;;;;;;;1999.90;999.90;;;5.00;99.90;;;;;;4978622;28;20735;-80
2021/11/09 06:39:28;;;;;;;1999.90;999.90;;;5.10;99.90;;;;;;4994810;28;20189;-81
2021/11/09 06:41:54;;;;;;;1999.90;999.90;;;5.10;99.90;;;;;;4980853;28;20538;-79
2021/11/09 06:44:19;;;;;;;1999.90;999.90;;;5.00;99.90;;;;;;5007404;28;20212;-78
2021/11/09 06:46:45;;;;;;;1999.90;999.90;;;5.30;99.90;;;;;;4995708;28;20287;-79
2021/11/09 06:49:11;;;;;;;1999.90;999.90;;;5.00;99.90;;;;;;5013546;28;20170;-77
2021/11/09 06:51:37;;;;;;;1999.90;999.90;;;5.10;99.90;;;;;;4993537;28;20175;-76
2021/11/09 06:54:02;;;;;;;1999.90;999.90;;;5.10;99.90;;;;;;5018544;28;20255;-78
2021/11/09 06:56:28;;;;;;;1999.90;999.90;;;5.10;99.90;;;;;;4974471;28;20200;-80
2021/11/09 06:58:53;;;;;;;1999.90;999.90;;;5.00;99.90;;;;;;4973956;28;20551;-77
2021/11/09 07:01:20;;;;;;;1999.90;999.90;;;5.10;99.90;;;;;;4995930;28;20486;-78
2021/11/09 07:03:46;;;;;;;1999.90;999.90;;;5.10;99.90;;;;;;4999077;28;20168;-81
2021/11/09 07:06:11;;;;;;;1999.90;999.90;;;5.10;99.90;;;;;;4962215;28;20193;-76
2021/11/09 07:08:37;;;;;;;1999.90;999.90;;;5.10;99.90;;;;;;4977585;28;20248;-77
2021/11/09 07:11:03;;;;;;;1999.90;999.90;;;5.10;99.90;;;;;;4979586;28;20255;-77
2021/11/09 07:13:30;;;;;;;1999.90;999.90;;;5.20;99.90;;;;;;4977404;28;20537;-76
2021/11/09 07:15:55;;;;;;;1999.90;999.90;;;5.10;99.90;;;;;;4976920;28;20172;-76
2021/11/09 07:18:21;;;;;;;1999.90;999.90;;;5.20;99.90;;;;;;4976615;28;20600;-79
2021/11/09 07:20:47;;;;;;;1999.90;999.90;;;5.20;99.90;;;;;;4977014;28;20184;-78
2021/11/09 07:23:12;;;;;;;1999.90;999.90;;;5.20;99.90;;;;;;4992993;28;20208;-77
2021/11/09 07:25:38;;;;;;;1999.90;999.90;;;5.30;99.90;;;;;;4993292;28;20180;-79
2021/11/09 07:28:04;;;;;;;1999.90;999.90;;;5.30;99.90;;;;;;4963801;28;20216;-82
2021/11/09 07:30:40;;;;;;;1999.90;999.90;;;5.30;99.90;;;;;;4985003;28;20698;-81
2021/11/09 07:33:06;;;;;;;1999.90;999.90;;;5.40;99.90;;;;;;4969827;28;20189;-81
2021/11/09 07:35:32;;;;;;;1999.90;999.90;;;5.40;99.90;;;;;;4962412;28;20176;-79
2021/11/09 07:37:58;;;;;;;1999.90;999.90;;;5.40;99.90;;;;;;4978891;28;20195;-80
2021/11/09 07:40:23;;;;;;;1999.90;999.90;;;5.60;99.90;;;;;;4964869;28;20176;-79
2021/11/09 07:42:49;;;;;;;1999.90;999.90;;;5.60;99.90;;;;;;4978434;28;20184;-80
2021/11/09 07:45:17;;;;;;;1999.90;999.90;;;5.70;99.90;;;;;;4979974;28;20203;-75
2021/11/09 07:47:43;;;;;;;1999.90;999.90;;;5.70;99.90;;;;;;4957197;28;20628;-74
2021/11/09 07:50:08;;;;;;;1999.90;999.90;;;5.80;99.90;;;;;;4972788;28;20200;-74
2021/11/09 07:52:34;;;;;;;1999.90;999.90;;;5.80;99.90;;;;;;4973044;28;20211;-76
2021/11/09 07:55:04;;;;;;;1999.90;999.90;;;5.90;99.90;;;;;;4973232;28;20155;-77
2021/11/09 07:57:34;;;;;;;1999.90;999.90;;;5.90;99.90;;;;;;4978238;28;20722;-73
2021/11/09 08:00:09;;;;;;;1999.90;999.90;;;6.00;99.90;;;;;;4992023;28;20168;-76
2021/11/09 08:03:00;;;;;;;1999.90;999.90;;;6.00;99.90;;;;;;4977106;28;20267;-75
2021/11/09 08:05:33;;;;;;;1999.90;999.90;;;6.10;99.90;;;;;;4992382;28;20235;-74
2021/11/09 08:08:12;;;;;;;1999.90;999.90;;;6.30;99.90;;;;;;4976464;28;20213;-75
2021/11/09 08:10:38;;;;;;;1999.90;999.90;;;6.50;99.90;;;;;;4993248;28;20225;-75
2021/11/09 08:13:03;;;;;;;1999.90;999.90;;;6.50;99.90;;;;;;4991777;28;20659;-75
2021/11/09 08:15:30;;;;;;;1999.90;999.90;;;6.70;99.90;;;;;;4993052;28;20170;-75
2021/11/09 08:17:55;;;;;;;1999.90;999.90;;;6.90;99.90;;;;;;4958869;28;20223;-75
2021/11/09 08:20:21;;;;;;;1999.90;999.90;;;6.90;99.90;;;;;;4975695;28;20657;-75
2021/11/09 08:22:47;;;;;;;1999.90;999.90;;;7.00;99.90;;;;;;4991808;28;20548;-75
2021/11/09 08:25:13;;;;;;;1999.90;999.90;;;7.00;99.90;;;;;;4991816;28;20184;-75
2021/11/09 08:27:39;;;;;;;1999.90;999.90;;;7.20;99.90;;;;;;4959178;28;20216;-75
2021/11/09 08:30:04;;;;;;;1999.90;999.90;;;7.20;99.90;;;;;;4991459;28;20184;-75
2021/11/09 08:32:30;;;;;;;1999.90;999.90;;;7.30;99.90;;;;;;4959487;28;20180;-75
2021/11/09 08:34:56;;;;;;;1999.90;999.90;;;7.40;99.90;;;;;;4975405;28;20307;-75
2021/11/09 08:37:22;;;;;;;1999.90;999.90;;;7.40;99.90;;;;;;4991589;28;20275;-75
2021/11/09 08:39:47;;;;;;;1999.90;999.90;;;7.50;99.90;;;;;;4959259;28;20279;-74
2021/11/09 08:42:36;;;;;;;1999.90;999.90;;;7.50;99.90;;;;;;4991637;28;20659;-74
2021/11/09 08:45:10;;;;;;;1999.90;999.90;;;7.60;99.90;;;;;;4977938;28;20656;-75
2021/11/09 08:47:41;;;;;;;1999.90;999.90;;;7.80;99.90;;;;;;4961873;28;20249;-75
2021/11/09 08:50:07;;;;;;;1999.90;999.90;;;8.00;99.90;;;;;;4975841;28;20732;-74
2021/11/09 08:52:34;;;;;;;1999.90;999.90;;;8.00;99.90;;;;;;4975257;28;20323;-74
2021/11/09 08:55:17;;;;;;;1999.90;999.90;;;8.20;99.90;;;;;;4975473;28;20650;-74
2021/11/09 09:05:25;;;;;;;1999.90;999.90;;;8.50;99.90;;;;;;4991394;28;20161;-75
2021/11/09 09:07:51;;;;;;;1999.90;999.90;;;8.60;99.90;;;;;;4974784;28;20555;-74
2021/11/09 09:10:17;;;;;;;1999.90;999.90;;;8.70;99.90;;;;;;4975129;28;20644;-75
2021/11/09 09:12:43;;;;;;;1999.90;999.90;;;8.80;99.90;;;;;;4975172;28;20218;-75
2021/11/09 09:15:11;;;;;;;1999.90;999.90;;;8.80;99.90;;;;;;4975264;28;20178;-75
2021/11/09 09:17:37;;;;;;;1999.90;999.90;;;8.90;99.90;;;;;;4974965;28;20201;-75
2021/11/09 09:20:21;;;;;;;1999.90;999.90;;;8.90;99.90;;;;;;4958816;28;20184;-75
2021/11/09 09:23:02;;;;;;;1999.90;999.90;;;9.00;99.90;;;;;;4992412;28;20559;-75
2021/11/09 09:52:12;;;;;;;1999.90;999.90;;;9.30;99.90;;;;;;4994249;28;20210;-75
2021/11/09 09:57:28;;;;;;;1999.90;999.90;;;10.20;99.90;;;;;;4980036;28;20194;-80
2021/11/09 09:59:55;;;;;;;1999.90;999.90;;;10.30;99.90;;;;;;4981617;28;20651;-80
2021/11/09 10:02:24;;;;;;;1999.90;999.90;;;10.40;99.90;;;;;;4965142;28;20570;-80
2021/11/09 10:05:01;;;;;;;1999.90;999.90;;;10.40;99.90;;;;;;4966948;28;20777;-82
2021/11/09 10:07:43;;;;;;;1999.90;999.90;;;10.50;99.90;;;;;;4967429;28;20571;-82
2021/11/09 10:10:13;;;;;;;1999.90;999.90;;;10.50;99.90;;;;;;4964430;28;20175;-78
2021/11/09 10:12:44;;;;;;;1999.90;999.90;;;10.70;99.90;;;;;;4994676;28;20558;-78
2021/11/09 10:15:18;;;;;;;1999.90;999.90;;;11.00;99.90;;;;;;4962609;28;20188;-77
2021/11/09 10:17:51;;;;;;;1999.90;999.90;;;11.10;99.90;;;;;;4978657;28;20207;-78
2021/11/09 10:20:18;;;;;;;1999.90;999.90;;;11.30;99.90;;;;;;4978278;28;20202;-77
2021/11/09 10:22:45;;;;;;;1999.90;999.90;;;11.50;99.90;;;;;;4978558;28;20722;-78
2021/11/09 10:25:14;;;;;;;1999.90;999.90;;;11.70;99.90;;;;;;4961498;28;20198;-78
2021/11/09 10:27:40;;;;;;;1999.90;999.90;;;11.80;99.90;;;;;;4973807;28;20272;-78
2021/11/09 10:30:16;;;;;;;1999.90;999.90;;;11.90;99.90;;;;;;4980191;28;20223;-78
2021/11/09 10:32:42;;;;;;;1999.90;999.90;;;11.90;99.90;;;;;;4996335;28;20187;-77
2021/11/09 10:35:09;;;;;;;1999.90;999.90;;;11.90;99.90;;;;;;4997325;28;20658;-77
2021/11/09 10:37:37;;;;;;;1999.90;999.90;;;12.10;99.90;;;;;;4980281;28;20211;-77
2021/11/09 10:40:12;;;;;;;1999.90;999.90;;;12.00;99.90;;;;;;4963158;28;20219;-78
2021/11/09 10:42:39;;;;;;;1999.90;999.90;;;12.00;99.90;;;;;;4979105;28;20603;-77
2021/11/09 10:45:10;;;;;;;1999.90;999.90;;;12.00;99.90;;;;;;5000521;28;20180;-80
2021/11/09 10:47:40;;;;;;;1999.90;999.90;;;11.90;99.90;;;;;;4967404;28;20273;-81
2021/11/09 10:50:09;;;;;;;1999.90;999.90;;;12.20;99.90;;;;;;4963144;28;20185;-81
2021/11/09 10:52:36;;;;;;;1999.90;999.90;;;12.00;99.90;;;;;;4984473;28;20531;-81
2021/11/09 11:00:56;;;;;;;1999.90;999.90;;;12.20;99.90;;;;;;4982182;28;20183;-80
2021/11/09 11:03:29;;;;;;;1999.90;999.90;;;12.20;99.90;;;;;;5000918;28;20676;-80
2021/11/09 11:06:17;;;;;;;1999.90;999.90;;;12.20;99.90;;;;;;4994906;28;20188;-83
2021/11/09 11:08:43;;;;;;;1999.90;999.90;;;12.00;99.90;;;;;;5002080;28;20550;-81
2021/11/09 11:11:28;;;;;;;1999.90;999.90;;;12.00;99.90;;;;;;4981040;28;20161;-82
2021/11/09 11:14:15;;;;;;;1999.90;999.90;;;12.00;99.90;;;;;;4997356;28;20211;-81
2021/11/09 11:16:47;;;;;;;1999.90;999.90;;;12.10;99.90;;;;;;4955695;28;20226;-82
2021/11/09 11:19:17;;;;;;;1999.90;999.90;;;12.00;99.90;;;;;;4946383;29;20192;-81
2021/11/09 11:21:43;;;;;;;1999.90;999.90;;;;;;;;;;4944155;29;20207;-81
2021/11/09 11:24:10;;;;;;;1999.90;999.90;;;;;;;;;;4960791;28;20192;-80
2021/11/09 11:26:37;;;;;;;1999.90;999.90;;;11.90;99.90;;;;;;4981884;28;20211;-80
2021/11/09 11:29:03;;;;;;;1999.90;999.90;;;12.20;99.90;;;;;;4964934;28;20580;-80
2021/11/09 11:31:29;;;;;;;1999.90;999.90;;;12.10;99.90;;;;;;4956074;28;20264;-80
2021/11/09 11:33:54;;;;;;;1999.90;999.90;;;12.10;99.90;;;;;;4962789;28;20664;-80
2021/11/09 11:36:20;;;;;;;1999.90;999.90;;;12.20;99.90;;;;;;5001160;28;20567;-79
2021/11/09 11:38:47;;;;;;;1999.90;999.90;;;12.20;99.90;;;;;;4957825;28;20189;-80
2021/11/09 11:41:13;;;;;;;1999.90;999.90;;;;;;;;;;4942791;28;20194;-80
2021/11/09 11:43:42;;;;;;;1999.90;999.90;;;12.10;99.90;;;;;;4980084;28;20177;-80
2021/11/09 11:46:11;;;;;;;1999.90;999.90;;;12.30;99.90;;;;;;4984607;28;20231;-80
2021/11/09 11:48:56;;;;;;;1999.90;999.90;;;12.30;99.90;;;;;;4951559;28;20219;-80
2021/11/09 11:51:23;;;;;;;1999.90;999.90;;;12.40;99.90;;;;;;4967871;28;20619;-80
2021/11/09 11:53:53;;;;;;;1999.90;999.90;;;12.30;99.90;;;;;;4965485;28;20185;-80
2021/11/09 11:56:20;;;;;;;1999.90;999.90;;;12.40;99.90;;;;;;4957040;28;20700;-80
2021/11/09 11:58:46;;;;;;;1999.90;999.90;;;12.30;99.90;;;;;;4984965;28;20546;-80
2021/11/09 12:01:11;;;;;;;1999.90;999.90;;;12.40;99.90;;;;;;4967379;28;20189;-80
2021/11/09 12:03:38;;;;;;;1999.90;999.90;;;;;;;;;;4946208;28;20182;-79
2021/11/09 12:06:19;;;;;;;1999.90;999.90;;;;;;;;;;4973538;28;20646;-82
2021/11/09 12:08:48;;;;;;;1999.90;999.90;;;;;;;;;;4958213;28;20209;-83
2021/11/09 12:11:24;;;;;;;1999.90;999.90;;;;;;;;;;4958736;28;20197;-81
2021/11/09 12:13:55;;;;;;;1999.90;999.90;;;;;;;;;;4976534;28;20193;-82
2021/11/09 12:16:48;;;;;;;1999.90;999.90;;;;;;;;;;4973866;28;20229;-81
2021/11/09 12:19:33;;;;;;;1999.90;999.90;;;;;;;;;;4956200;29;20224;-81
2021/11/09 12:22:06;;;;;;;1999.90;999.90;;;;;;;;;;4958372;28;20870;-81
2021/11/09 12:24:33;;;;;;;1999.90;999.90;;;;;;;;;;4960143;28;20184;-81
2021/11/09 12:26:59;;;;;;;1999.90;999.90;;;;;;;;;;4960461;28;20205;-81
2021/11/09 12:29:39;;;;;;;1999.90;999.90;;;;;;;;;;4978218;28;20173;-82
2021/11/09 12:32:25;;;;;;;1999.90;999.90;;;;;;;;;;4977559;28;20184;-81
2021/11/09 12:34:57;;;;;;;1999.90;999.90;;;;;;;;;;4961770;28;20204;-81
2021/11/09 12:37:23;;;;;;;1999.90;999.90;;;;;;;;;;4977396;28;20200;-81
2021/11/09 12:39:50;;;;;;;1999.90;999.90;;;;;;;;;;4962079;28;20189;-81
2021/11/09 12:42:16;;;;;;;1999.90;999.90;;;;;;;;;;4961812;28;20224;-80
2021/11/09 12:44:42;;;;;;;1999.90;999.90;;;;;;;;;;4961846;28;20599;-80
2021/11/09 12:47:12;;;;;;;1999.90;999.90;;;;;;;;;;4961943;28;20226;-80
2021/11/09 12:49:39;;;;;;;1999.90;999.90;;;12.60;99.90;;;;;;4963119;28;20227;-81
2021/11/09 12:52:06;;;;;;;1999.90;999.90;;;;;;;;;;4968830;28;20184;-81
2021/11/09 12:54:33;;;;;;;1999.90;999.90;;;;;;;;;;4981592;28;20589;-80
2021/11/09 12:57:03;;;;;;;1999.90;999.90;;;;;;;;;;4980576;28;20201;-84
2021/11/09 13:09:39;;;;;;;1999.90;999.90;;;;;;;;;;4996212;28;20207;-80
2021/11/09 13:12:14;;;;;;;1999.90;999.90;;;;;;;;;;4975629;28;20703;-81
2021/11/09 13:14:45;;;;;;;1999.90;999.90;;;;;;;;;;4991635;28;20177;-80
2021/11/09 13:17:12;;;;;;;1999.90;999.90;;;;;;;;;;4982947;28;20208;-79
2021/11/09 13:19:41;;;;;;;1999.90;999.90;;;;;;;;;;4961852;28;20181;-80
2021/11/09 13:22:18;;;;;;;1999.90;999.90;;;12.60;99.90;;;;;;4966083;28;20184;-79
2021/11/09 13:25:05;;;;;;;1999.90;999.90;;;12.50;99.90;;;;;;4963022;28;20161;-78
2021/11/09 13:27:34;;;;;;;1999.90;999.90;;;;;;;;;;4961559;28;20219;-78
2021/11/09 13:30:07;;;;;;;1999.90;999.90;;;;;;;;;;4980848;28;20260;-79
2021/11/09 13:32:33;;;;;;;1999.90;999.90;;;;;;;;;;4962939;28;20173;-79
2021/11/09 13:34:59;;;;;;;1999.90;999.90;;;;;;;;;;4978209;28;20177;-79
2021/11/09 13:37:25;;;;;;;1999.90;999.90;;;;;;;;;;4963601;28;20201;-79
2021/11/09 13:39:59;;;;;;;1999.90;999.90;;;;;;;;;;4988880;28;20196;-81
2021/11/09 13:42:25;;;;;;;1999.90;999.90;;;;;;;;;;4964970;28;20191;-81
2021/11/09 13:44:51;;;;;;;1999.90;999.90;;;;;;;;;;4961935;28;20248;-81
2021/11/09 13:47:28;;;;;;;1999.90;999.90;;;;;;;;;;4974746;28;20589;-81
2021/11/09 13:50:04;;;;;;;1999.90;999.90;;;;;;;;;;4983486;28;20181;-81
2021/11/09 13:52:31;;;;;;;1999.90;999.90;;;;;;;;;;4969867;28;20664;-80
2021/11/09 13:54:58;;;;;;;1999.90;999.90;;;;;;;;;;4967764;28;20184;-79
2021/11/09 13:57:24;;;;;;;1999.90;999.90;;;;;;;;;;4967797;28;20582;-80
2021/11/09 13:59:51;;;;;;;1999.90;999.90;;;;;;;;;;4972902;28;20180;-79
2021/11/09 14:06:00;;;;;;;1999.90;999.90;;;;;;;;;;4977921;28;20280;-80
2021/11/09 14:08:07;;;;;;;1999.90;999.90;;;;;;;;;;4985921;28;20212;-80
2021/11/09 14:13:16;;;;;;;1999.90;999.90;;;;;;;;;;4984986;28;20250;-81
2021/11/09 14:18:13;;;;;;;1999.90;999.90;;;;;;;;;;4989962;28;20250;-81
2021/11/09 14:20:48;;;;;;;1999.90;999.90;;;;;;;;;;4977125;28;20197;-80
2021/11/09 14:23:15;;;;;;;1999.90;999.90;;;;;;;;;;4982110;28;20601;-75
2021/11/09 14:25:42;;;;;;;1999.90;999.90;;;;;;;;;;4962929;28;20224;-75
2021/11/09 14:28:09;;;;;;;1999.90;999.90;;;;;;;;;;4966989;28;20204;-80
2021/11/09 14:30:36;;;;;;;1999.90;999.90;;;;;;;;;;4974850;28;20637;-75
2021/11/09 14:33:05;;;;;;;1999.90;999.90;;;;;;;;;;4979409;28;20183;-75
2021/11/09 14:35:35;;;;;;;1999.90;999.90;;;;;;;;;;4993988;28;20173;-75
2021/11/09 14:38:08;;;;;;;1999.90;999.90;;;;;;;;;;4949775;28;20607;-75
2021/11/09 14:40:36;;;;;;;1999.90;999.90;;;;;;;;;;4968422;28;20191;-76
2021/11/09 14:43:16;;;;;;;1999.90;999.90;;;;;;;;;;4967514;28;20208;-75
2021/11/09 14:48:15;;;;;;;1999.90;999.90;;;;;;;;;;4964149;28;20263;-75
2021/11/09 14:51:15;;;;;;;1999.90;999.90;;;;;;;;;;4972995;28;20177;-75
2021/11/09 14:56:19;;;;;;;1999.90;999.90;;;;;;;;;;4974176;28;20185;-75
2021/11/09 14:58:46;;;;;;;1999.90;999.90;;;;;;;;;;4973726;28;20260;-74
2021/11/09 15:01:47;;;;;;;1999.90;999.90;;;;;;;;;;4974698;28;20539;-75
2021/11/09 15:04:21;;;;;;;1999.90;999.90;;;;;;;;;;4970271;28;20239;-76